Time;durP1;ratioP1;P1;durP2;ratioP2;P2;SDS_P1;SDS_P2;PMS_P1;PMS_P2;Temp;Humidity;BMP_temperature;BMP_pressure;BME280_temperature;BME280_humidity;BME280_pressure;Samples;Min_cycle;Max_cycle;Signal;HPM_P1;HPM_P2
2023/10/31 00:02:17;;;;;;;7.40;4.60;;;;;;;15.07;93.33;96577.95;109808;1283;22134;-87
2023/10/31 00:04:45;;;;;;;10.50;4.90;;;;;;;15.10;93.25;96573.97;109763;1286;22134;-87
2023/10/31 00:07:13;;;;;;;9.40;4.40;;;;;;;15.09;92.94;96568.77;109848;1279;22440;-88
2023/10/31 00:09:44;;;;;;;7.90;4.60;;;;;;;15.08;92.78;96567.27;109846;1279;22387;-87
2023/10/31 00:12:12;;;;;;;6.90;4.70;;;;;;;15.06;92.28;96564.37;109854;1286;22264;-86
2023/10/31 00:14:40;;;;;;;12.30;5.10;;;;;;;15.02;92.12;96559.65;109848;1280;22232;-87
2023/10/31 00:17:08;;;;;;;10.80;5.50;;;;;;;14.99;91.68;96559.14;109875;1286;22575;-86
2023/10/31 00:19:37;;;;;;;10.10;4.90;;;;;;;14.97;91.56;96556.77;109786;1278;22692;-86
2023/10/31 00:22:58;;;;;;;8.90;5.30;;;;;;;14.96;91.31;96555.89;109783;1286;22164;-87
2023/10/31 00:25:26;;;;;;;9.40;5.20;;;;;;;14.89;91.41;96547.80;109705;1286;22916;-86
2023/10/31 00:27:54;;;;;;;12.10;6.40;;;;;;;14.84;90.82;96547.30;109781;1272;22233;-86
2023/10/31 00:30:22;;;;;;;12.50;7.60;;;;;;;14.78;90.64;96543.01;109642;1287;22152;-87
2023/10/31 00:32:50;;;;;;;11.80;7.30;;;;;;;14.70;90.39;96540.61;109685;1282;22132;-86
2023/10/31 00:35:48;;;;;;;10.70;7.20;;;;;;;14.64;90.48;96540.41;109692;1286;22189;-86
2023/10/31 00:38:16;;;;;;;11.30;8.10;;;;;;;14.58;90.44;96527.92;109883;1287;22166;-85
2023/10/31 00:40:44;;;;;;;11.30;7.60;;;;;;;14.51;90.32;96517.72;109912;1280;22421;-85
2023/10/31 00:43:13;;;;;;;10.50;6.80;;;;;;;14.45;90.19;96512.54;109963;1286;22677;-85
2023/10/31 00:45:41;;;;;;;10.50;7.60;;;;;;;14.41;90.25;96504.57;109935;1280;22101;-86
2023/10/31 00:48:09;;;;;;;13.10;6.70;;;;;;;14.38;90.12;96493.27;109678;1288;22181;-87
2023/10/31 00:50:37;;;;;;;15.80;10.00;;;;;;;14.34;89.81;96482.67;109734;1287;22261;-87
2023/10/31 00:53:05;;;;;;;12.30;7.30;;;;;;;14.27;89.76;96477.44;109736;1287;22759;-86
2023/10/31 00:55:33;;;;;;;12.70;8.60;;;;;;;14.29;89.90;96481.48;109825;1280;22244;-86
2023/10/31 00:58:01;;;;;;;9.10;7.30;;;;;;;14.28;90.02;96476.73;109811;1286;22306;-86
2023/10/31 01:04:57;;;;;;;8.60;6.10;;;;;;;14.28;89.61;96464.36;109782;1280;22307;-87
2023/10/31 01:08:16;;;;;;;12.80;6.10;;;;;;;14.32;89.19;96463.19;109738;1280;22375;-87
2023/10/31 01:10:44;;;;;;;10.60;5.50;;;;;;;14.42;89.31;96457.88;109668;1287;22129;-87
2023/10/31 01:13:13;;;;;;;9.40;6.70;;;;;;;14.48;89.32;96453.66;109827;1279;22083;-87
2023/10/31 01:15:45;;;;;;;13.50;6.40;;;;;;;14.48;89.23;96441.77;109788;1286;22231;-87
2023/10/31 01:18:13;;;;;;;10.00;7.00;;;;;;;14.52;89.09;96435.41;109692;1280;22718;-87
2023/10/31 01:20:41;;;;;;;10.60;6.80;;;;;;;14.52;88.75;96431.55;109737;1287;22892;-87
2023/10/31 01:23:09;;;;;;;12.70;6.70;;;;;;;14.52;88.72;96428.13;109772;1286;22889;-87
2023/10/31 01:25:37;;;;;;;12.30;6.10;;;;;;;14.52;88.39;96416.60;109740;1287;22167;-88
2023/10/31 01:28:31;;;;;;;13.90;6.10;;;;;;;14.52;88.10;96418.14;109725;1286;22224;-87
2023/10/31 01:30:59;;;;;;;10.90;5.80;;;;;;;14.54;88.43;96406.48;109747;1287;22151;-87
2023/10/31 01:33:27;;;;;;;7.90;5.40;;;;;;;14.58;88.51;96401.13;109729;1287;22225;-87
2023/10/31 01:36:47;;;;;;;11.10;6.30;;;;;;;14.60;88.37;96402.56;109687;1286;22120;-86
2023/10/31 01:39:15;;;;;;;9.30;5.60;;;;;;;14.60;88.23;96389.01;109637;1282;22328;-86
2023/10/31 01:41:43;;;;;;;7.00;4.90;;;;;;;14.59;88.19;96388.99;109797;1287;23023;-85
2023/10/31 01:44:11;;;;;;;7.60;5.50;;;;;;;14.61;87.92;96381.05;109659;1287;22636;-86
2023/10/31 01:46:39;;;;;;;11.80;5.00;;;;;;;14.67;86.98;96380.15;109659;1286;22319;-86
2023/10/31 01:49:08;;;;;;;9.80;4.40;;;;;;;14.80;86.78;96369.04;109749;1273;22994;-86
2023/10/31 01:51:36;;;;;;;8.60;5.00;;;;;;;14.90;86.48;96373.70;109745;1280;22244;-86
2023/10/31 01:54:04;;;;;;;7.90;4.40;;;;;;;15.00;86.55;96378.26;109745;1280;22218;-86
2023/10/31 01:56:32;;;;;;;8.00;4.40;;;;;;;15.07;86.08;96379.45;109741;1287;22207;-85
2023/10/31 01:59:00;;;;;;;7.20;4.70;;;;;;;15.11;85.91;96378.91;109690;1287;22117;-86
2023/10/31 02:01:28;;;;;;;7.10;4.80;;;;;;;15.14;85.71;96374.43;109745;1280;22129;-85
2023/10/31 02:03:58;;;;;;;10.20;5.90;;;;;;;15.13;85.33;96370.79;109749;1280;22236;-86
2023/10/31 02:06:26;;;;;;;10.50;5.40;;;;;;;15.12;85.27;96364.41;109673;1287;22238;-86
2023/10/31 02:08:54;;;;;;;8.40;5.30;;;;;;;15.11;85.38;96348.38;109616;1287;22129;-86
2023/10/31 02:11:23;;;;;;;8.30;4.30;;;;;;;15.14;85.07;96333.42;109741;1287;22454;-86
2023/10/31 02:13:51;;;;;;;9.40;4.80;;;;;;;15.16;85.05;96330.21;109675;1283;22070;-86
2023/10/31 02:16:19;;;;;;;6.90;4.40;;;;;;;15.17;84.93;96321.77;109721;1287;22852;-86
2023/10/31 02:18:47;;;;;;;13.90;4.70;;;;;;;15.19;84.48;96321.18;109771;1286;22310;-86
2023/10/31 02:21:16;;;;;;;9.30;5.60;;;;;;;15.20;84.25;96315.06;109653;1282;22221;-85
2023/10/31 02:23:59;;;;;;;8.90;4.50;;;;;;;15.19;83.75;96309.25;109607;1287;22163;-85
2023/10/31 02:26:30;;;;;;;7.80;4.70;;;;;;;15.17;83.95;96316.66;109697;1286;22094;-86
2023/10/31 02:29:00;;;;;;;14.30;5.50;;;;;;;15.16;84.04;96323.39;109764;1286;22873;-86
2023/10/31 02:31:28;;;;;;;7.50;4.40;;;;;;;15.16;83.83;96322.15;109767;1278;22425;-86
2023/10/31 02:33:56;;;;;;;8.30;5.40;;;;;;;15.14;83.68;96312.35;109782;1279;22333;-86
2023/10/31 02:36:24;;;;;;;8.90;5.10;;;;;;;15.12;83.71;96312.86;109779;1286;22129;-86
2023/10/31 02:38:53;;;;;;;8.80;4.40;;;;;;;15.10;83.64;96302.30;109793;1286;22351;-86
2023/10/31 02:41:20;;;;;;;8.10;4.30;;;;;;;15.08;83.53;96293.44;109798;1279;22269;-86
2023/10/31 02:43:48;;;;;;;14.80;4.80;;;;;;;15.05;83.37;96294.48;109821;1279;22138;-86
2023/10/31 02:46:17;;;;;;;8.20;4.40;;;;;;;15.01;83.25;96307.60;109730;1286;23384;-86
2023/10/31 02:48:45;;;;;;;8.30;4.60;;;;;;;14.97;83.02;96314.45;109801;1279;22300;-87
2023/10/31 02:51:13;;;;;;;8.40;4.60;;;;;;;14.92;82.99;96312.20;109745;1286;22251;-87
2023/10/31 02:53:42;;;;;;;9.00;4.50;;;;;;;14.87;82.76;96302.76;109794;1286;22160;-87
2023/10/31 02:56:10;;;;;;;10.80;5.40;;;;;;;14.84;82.65;96301.45;109660;1286;22131;-87
2023/10/31 02:58:38;;;;;;;8.80;4.70;;;;;;;14.82;82.89;96298.27;109756;1280;22224;-87
2023/10/31 03:01:06;;;;;;;10.90;4.90;;;;;;;14.79;82.92;96291.32;109779;1279;22196;-87
2023/10/31 03:03:34;;;;;;;9.80;4.50;;;;;;;14.75;83.08;96279.19;109771;1286;22349;-86
2023/10/31 03:06:05;;;;;;;9.20;5.20;;;;;;;14.73;83.19;96273.73;109799;1279;22105;-86
2023/10/31 03:08:33;;;;;;;12.90;5.50;;;;;;;14.72;83.20;96269.08;109711;1282;22186;-87
2023/10/31 03:11:01;;;;;;;7.90;5.30;;;;;;;14.73;83.15;96267.77;109718;1286;22118;-86
2023/10/31 03:13:29;;;;;;;8.20;5.00;;;;;;;14.75;83.07;96262.77;109812;1273;22740;-87
2023/10/31 03:15:57;;;;;;;8.50;4.10;;;;;;;14.78;82.65;96261.86;109713;1286;22341;-87
2023/10/31 03:18:25;;;;;;;12.70;4.40;;;;;;;14.84;82.51;96258.70;109810;1279;22288;-87
2023/10/31 03:20:53;;;;;;;8.10;4.50;;;;;;;14.91;82.52;96258.27;109829;1275;22105;-87
2023/10/31 03:23:21;;;;;;;7.90;4.10;;;;;;;14.99;81.85;96254.25;109760;1286;22879;-87
2023/10/31 03:25:49;;;;;;;7.90;4.60;;;;;;;15.05;81.54;96250.39;109784;1280;22139;-87
2023/10/31 03:32:02;;;;;;;8.90;4.70;;;;;;;15.20;81.18;96242.91;109783;1286;22531;-86
2023/10/31 03:34:30;;;;;;;10.60;5.20;;;;;;;15.21;80.70;96239.27;109783;1283;22137;-86
2023/10/31 03:37:51;;;;;;;7.70;4.60;;;;;;;15.19;80.21;96234.27;109713;1286;22392;-86
2023/10/31 03:40:20;;;;;;;8.40;4.30;;;;;;;15.06;79.96;96228.63;109782;1279;22077;-86
2023/10/31 03:42:47;;;;;;;14.40;4.50;;;;;;;15.01;80.26;96242.27;109794;1286;22184;-87
2023/10/31 03:45:15;;;;;;;8.40;4.10;;;;;;;14.95;80.52;96241.49;109813;1278;22129;-87
2023/10/31 03:47:43;;;;;;;5.70;4.00;;;;;;;14.90;80.70;96243.23;109859;1286;22236;-87
2023/10/31 03:50:11;;;;;;;7.80;4.80;;;;;;;14.90;80.71;96239.65;109868;1286;22581;-87
2023/10/31 03:52:44;;;;;;;5.80;4.10;;;;;;;14.93;80.65;96236.29;109801;1286;22156;-86
2023/10/31 03:55:14;;;;;;;6.10;3.50;;;;;;;14.99;80.54;96235.81;109800;1286;22193;-86
2023/10/31 03:57:42;;;;;;;7.30;3.90;;;;;;;15.14;80.47;96237.33;109656;1286;22198;-87
2023/10/31 04:00:11;;;;;;;8.20;3.70;;;;;;;15.28;79.66;96232.00;109782;1286;22235;-87
2023/10/31 04:02:42;;;;;;;6.90;4.00;;;;;;;15.47;78.44;96229.34;109791;1286;22271;-87
2023/10/31 04:06:02;;;;;;;8.00;4.10;;;;;;;15.66;77.81;96232.65;109798;1283;22121;-87
2023/10/31 04:08:31;;;;;;;11.10;3.60;;;;;;;15.85;77.81;96226.50;109861;1279;22973;-87
2023/10/31 04:10:59;;;;;;;10.70;3.80;;;;;;;15.97;77.02;96224.29;109740;1286;22229;-87
2023/10/31 04:13:26;;;;;;;8.30;3.80;;;;;;;16.08;76.00;96217.63;109797;1286;22265;-87
2023/10/31 04:15:54;;;;;;;8.40;3.40;;;;;;;16.19;75.94;96214.76;109735;1286;22304;-87
2023/10/31 04:18:22;;;;;;;8.20;4.00;;;;;;;16.30;75.46;96214.85;109787;1286;22673;-87
2023/10/31 04:20:51;;;;;;;10.50;3.50;;;;;;;16.38;75.36;96214.29;109805;1279;22093;-87
2023/10/31 04:23:19;;;;;;;10.50;6.00;;;;;;;16.46;74.62;96206.58;109729;1286;22879;-87
2023/10/31 04:25:47;;;;;;;7.20;4.10;;;;;;;16.55;74.03;96202.29;109764;1280;22950;-86
2023/10/31 04:31:59;;;;;;;9.90;4.70;;;;;;;16.73;72.58;96186.38;109900;1280;22386;-86
2023/10/31 04:34:27;;;;;;;8.60;4.80;;;;;;;16.80;71.99;96178.21;109878;1286;22238;-86
2023/10/31 04:36:55;;;;;;;9.20;4.10;;;;;;;16.87;71.52;96181.20;109958;1280;22148;-86
2023/10/31 04:39:23;;;;;;;6.60;3.90;;;;;;;16.93;70.93;96185.67;110007;1279;22291;-88
2023/10/31 04:41:51;;;;;;;9.20;3.60;;;;;;;16.98;69.84;96178.77;109785;1286;22264;-87
2023/10/31 04:44:19;;;;;;;7.50;3.20;;;;;;;17.04;70.05;96177.61;109781;1286;22601;-87
2023/10/31 04:46:47;;;;;;;7.00;3.30;;;;;;;17.10;69.19;96171.98;109714;1286;22110;-88
2023/10/31 04:49:15;;;;;;;8.50;3.30;;;;;;;17.17;68.69;96168.65;109571;1286;23060;-88
2023/10/31 04:51:43;;;;;;;6.20;3.20;;;;;;;17.24;67.82;96163.54;109680;1282;23023;-88
2023/10/31 04:54:11;;;;;;;8.90;3.80;;;;;;;17.30;68.06;96163.02;109734;1286;22463;-87
2023/10/31 04:56:39;;;;;;;7.10;3.40;;;;;;;17.36;67.98;96166.38;109746;1286;22862;-87
2023/10/31 04:59:07;;;;;;;9.00;3.30;;;;;;;17.41;68.48;96167.17;109749;1284;22399;-87
2023/10/31 05:01:35;;;;;;;8.90;3.50;;;;;;;17.45;67.72;96166.86;109781;1278;22182;-86
2023/10/31 05:04:03;;;;;;;6.80;3.50;;;;;;;17.49;66.66;96170.92;109737;1276;22266;-87
2023/10/31 05:06:40;;;;;;;11.00;3.40;;;;;;;17.54;66.73;96174.52;109864;1279;22217;-87
2023/10/31 05:09:08;;;;;;;9.70;3.80;;;;;;;17.59;66.36;96176.94;109734;1280;22871;-86
2023/10/31 05:11:36;;;;;;;9.10;4.30;;;;;;;17.64;66.22;96175.16;109693;1283;23017;-87
2023/10/31 05:14:04;;;;;;;14.70;10.80;;;;;;;17.69;65.02;96175.86;109813;1279;22338;-86
2023/10/31 05:16:39;;;;;;;14.80;7.00;;;;;;;17.77;64.13;96177.21;109789;1286;22249;-87
2023/10/31 05:19:07;;;;;;;21.80;8.30;;;;;;;17.83;64.57;96170.55;109861;1280;22381;-87
2023/10/31 05:21:35;;;;;;;12.20;6.40;;;;;;;17.88;63.46;96167.35;109895;1286;22248;-86
2023/10/31 05:24:04;;;;;;;9.50;4.60;;;;;;;17.90;64.23;96170.06;109891;1286;22694;-88
2023/10/31 05:26:32;;;;;;;10.40;5.60;;;;;;;17.97;63.48;96180.13;109738;1286;22956;-89
2023/10/31 05:29:00;;;;;;;9.60;4.00;;;;;;;18.01;63.19;96180.13;109781;1286;22209;-88
2023/10/31 05:31:29;;;;;;;7.60;4.20;;;;;;;18.02;62.33;96164.23;109850;1283;22199;-90
2023/10/31 05:38:41;;;;;;;10.40;5.00;;;;;;;18.12;61.68;96161.90;109792;1286;22175;-85
2023/10/31 05:41:09;;;;;;;11.60;4.40;;;;;;;18.15;60.49;96164.23;109771;1280;22172;-88
2023/10/31 05:43:41;;;;;;;10.20;3.30;;;;;;;18.17;60.14;96163.29;109808;1279;22337;-86
2023/10/31 05:46:10;;;;;;;10.70;4.70;;;;;;;18.19;59.62;96162.90;109844;1286;22239;-85
2023/10/31 05:48:39;;;;;;;6.10;3.30;;;;;;;18.23;59.70;96162.05;109835;1286;22131;-88
2023/10/31 05:51:14;;;;;;;14.40;4.40;;;;;;;18.26;59.77;96166.02;109897;1286;22168;-92
2023/10/31 05:53:44;;;;;;;12.40;3.10;;;;;;;18.27;58.42;96171.01;109796;1280;22159;-91
2023/10/31 05:56:14;;;;;;;6.40;3.30;;;;;;;18.31;58.68;96167.10;109845;1280;22477;-92
2023/10/31 05:58:42;;;;;;;8.30;4.00;;;;;;;18.32;58.21;96176.67;109824;1283;22902;-84
2023/10/31 06:01:10;;;;;;;10.00;3.70;;;;;;;18.32;57.93;96174.11;109752;1286;22224;-86
2023/10/31 06:03:43;;;;;;;10.00;3.50;;;;;;;18.36;57.91;96176.52;109746;1286;22873;-82
2023/10/31 06:06:12;;;;;;;10.20;3.70;;;;;;;18.38;57.22;96176.36;109737;1286;22219;-87
2023/10/31 06:08:41;;;;;;;5.70;2.90;;;;;;;18.42;57.18;96189.77;109758;1283;22229;-85
2023/10/31 06:11:12;;;;;;;7.00;3.10;;;;;;;18.47;56.40;96205.27;109774;1286;22375;-88
2023/10/31 06:13:40;;;;;;;9.60;3.10;;;;;;;18.51;56.30;96211.65;109773;1280;22368;-85
2023/10/31 06:16:08;;;;;;;8.90;3.30;;;;;;;18.51;56.52;96211.73;109797;1283;22393;-84
2023/10/31 06:18:39;;;;;;;6.80;3.10;;;;;;;18.49;56.39;96220.14;109718;1264;22159;-85
2023/10/31 06:21:08;;;;;;;10.10;3.20;;;;;;;18.44;56.69;96213.99;109713;1286;22209;-84
2023/10/31 06:23:37;;;;;;;7.90;3.10;;;;;;;18.40;57.29;96213.30;109726;1282;22325;-84
2023/10/31 06:26:05;;;;;;;13.30;3.50;;;;;;;18.40;56.46;96217.42;109742;1286;22201;-84
2023/10/31 06:28:35;;;;;;;9.30;3.60;;;;;;;18.38;56.30;96227.02;109733;1286;22281;-84
2023/10/31 06:31:10;;;;;;;11.00;4.00;;;;;;;18.36;56.38;96229.73;109748;1286;22956;-83
2023/10/31 06:33:38;;;;;;;7.50;3.20;;;;;;;18.39;55.33;96237.14;109533;1286;22267;-84
2023/10/31 06:36:07;;;;;;;6.80;3.10;;;;;;;18.42;55.73;96230.66;109732;1286;22239;-84
2023/10/31 06:38:35;;;;;;;9.20;3.30;;;;;;;18.42;55.34;96236.82;109709;1286;22263;-84
2023/10/31 06:41:04;;;;;;;9.60;3.00;;;;;;;18.42;55.42;96240.56;109768;1286;22231;-84
2023/10/31 06:43:32;;;;;;;7.80;3.40;;;;;;;18.41;55.38;96245.77;109774;1286;22211;-84
2023/10/31 06:46:04;;;;;;;8.00;3.20;;;;;;;18.42;55.04;96254.83;109752;1286;22236;-84
2023/10/31 06:48:32;;;;;;;7.70;3.90;;;;;;;18.40;55.46;96250.92;109689;1286;22244;-84
2023/10/31 06:51:00;;;;;;;9.10;3.50;;;;;;;18.39;55.08;96255.69;109640;1284;22229;-84
2023/10/31 06:53:28;;;;;;;6.80;3.20;;;;;;;18.38;55.62;96256.38;109717;1286;22156;-83
2023/10/31 06:55:56;;;;;;;8.50;4.10;;;;;;;18.35;55.85;96252.88;109746;1286;22275;-83
2023/10/31 06:58:24;;;;;;;9.70;3.80;;;;;;;18.36;55.59;96267.52;109758;1286;23322;-83
2023/10/31 07:00:52;;;;;;;5.80;2.90;;;;;;;18.38;55.26;96262.61;109759;1274;22146;-84
2023/10/31 07:03:20;;;;;;;7.90;3.10;;;;;;;18.39;55.38;96252.64;109751;1283;22298;-84
2023/10/31 07:05:48;;;;;;;7.10;3.60;;;;;;;18.41;55.17;96262.84;109736;1286;22207;-83
2023/10/31 07:08:15;;;;;;;10.00;5.10;;;;;;;18.44;54.84;96254.66;109754;1271;22237;-84
2023/10/31 07:10:44;;;;;;;14.60;4.50;;;;;;;18.47;54.64;96256.39;109733;1286;22992;-84
2023/10/31 07:13:12;;;;;;;8.30;5.40;;;;;;;18.47;54.84;96265.95;109758;1283;22131;-84
2023/10/31 07:15:40;;;;;;;6.70;3.00;;;;;;;18.45;55.00;96275.55;109768;1286;22228;-84
2023/10/31 07:18:07;;;;;;;6.60;3.20;;;;;;;18.43;55.02;96270.24;109765;1286;22237;-84
2023/10/31 07:20:35;;;;;;;11.70;4.00;;;;;;;18.40;55.40;96275.23;109758;1286;22394;-84
2023/10/31 07:23:03;;;;;;;9.30;3.80;;;;;;;18.37;55.47;96278.50;109761;1283;22822;-84
2023/10/31 07:25:31;;;;;;;11.90;3.10;;;;;;;18.36;55.39;96275.38;109754;1283;22297;-84
2023/10/31 07:27:59;;;;;;;5.90;3.10;;;;;;;18.34;55.44;96274.84;109740;1286;22231;-84
2023/10/31 07:30:27;;;;;;;8.60;3.50;;;;;;;18.30;55.67;96283.17;109769;1280;22238;-84
2023/10/31 07:32:56;;;;;;;9.40;3.20;;;;;;;18.25;55.90;96282.87;109694;1286;22212;-84
2023/10/31 07:35:24;;;;;;;8.40;3.70;;;;;;;18.21;55.83;96284.34;109744;1273;22264;-83
2023/10/31 07:37:52;;;;;;;9.80;3.20;;;;;;;18.16;56.08;96283.08;109702;1286;22324;-83
2023/10/31 07:40:20;;;;;;;7.20;3.70;;;;;;;18.12;56.15;96284.24;109717;1281;23174;-83
2023/10/31 07:42:48;;;;;;;8.80;3.40;;;;;;;18.09;56.29;96278.71;109715;1280;22964;-84
2023/10/31 07:45:16;;;;;;;8.60;3.00;;;;;;;18.07;56.38;96269.98;109704;1273;22239;-84
2023/10/31 07:47:44;;;;;;;7.60;3.30;;;;;;;18.05;56.55;96270.91;109725;1286;22224;-84
2023/10/31 07:50:13;;;;;;;4.70;3.00;;;;;;;18.03;56.75;96267.33;109714;1280;22816;-84
2023/10/31 07:52:41;;;;;;;6.30;3.40;;;;;;;18.01;57.03;96271.39;109688;1283;22148;-84
2023/10/31 07:55:11;;;;;;;8.30;3.10;;;;;;;17.99;57.28;96271.69;109604;1287;22912;-84
2023/10/31 07:57:42;;;;;;;7.10;3.00;;;;;;;18.00;57.33;96269.20;109684;1286;22269;-84
2023/10/31 08:00:11;;;;;;;8.00;3.10;;;;;;;18.01;57.61;96268.11;109732;1286;22152;-84
2023/10/31 08:02:39;;;;;;;7.30;3.20;;;;;;;18.03;57.57;96274.33;109738;1287;22115;-84
2023/10/31 08:05:07;;;;;;;7.40;3.00;;;;;;;18.03;57.79;96279.08;109729;1287;23049;-83
2023/10/31 08:07:36;;;;;;;6.60;3.40;;;;;;;18.03;57.86;96285.24;109731;1286;22223;-83
2023/10/31 08:10:05;;;;;;;8.00;3.20;;;;;;;18.02;58.20;96291.00;109708;1286;22202;-84
2023/10/31 08:12:33;;;;;;;8.40;3.90;;;;;;;18.00;58.45;96293.25;109683;1287;22215;-83
2023/10/31 08:15:02;;;;;;;7.20;3.80;;;;;;;17.98;58.53;96298.39;109678;1279;22233;-84
2023/10/31 08:17:30;;;;;;;8.50;4.30;;;;;;;17.96;58.69;96308.89;109695;1286;22473;-83
2023/10/31 08:19:58;;;;;;;7.40;3.10;;;;;;;17.91;59.07;96310.75;109576;1287;22230;-82
2023/10/31 08:22:26;;;;;;;10.20;4.10;;;;;;;17.86;59.22;96313.46;109819;1273;22211;-83
2023/10/31 08:24:54;;;;;;;8.50;5.70;;;;;;;17.82;59.45;96315.39;109711;1288;23062;-83
2023/10/31 08:27:21;;;;;;;12.80;8.60;;;;;;;17.78;59.64;96317.08;109791;1280;22449;-82
2023/10/31 08:29:49;;;;;;;10.50;7.20;;;;;;;17.75;59.89;96312.00;109811;1286;23085;-83
2023/10/31 08:32:17;;;;;;;18.30;11.60;;;;;;;17.69;60.08;96307.45;109724;1280;22611;-84
2023/10/31 08:34:46;;;;;;;8.30;4.20;;;;;;;17.64;60.39;96304.56;109753;1286;22214;-84
2023/10/31 08:37:13;;;;;;;9.70;8.40;;;;;;;17.60;60.52;96302.14;109718;1286;22376;-84
2023/10/31 08:39:41;;;;;;;9.70;5.10;;;;;;;17.60;60.49;96305.88;109699;1286;22143;-84
2023/10/31 08:42:09;;;;;;;6.90;4.10;;;;;;;17.58;60.78;96311.77;109696;1276;22295;-84
2023/10/31 08:44:40;;;;;;;9.60;3.70;;;;;;;17.56;60.77;96315.65;109708;1286;22200;-83
2023/10/31 08:47:08;;;;;;;8.00;4.20;;;;;;;17.54;60.91;96316.20;109691;1285;23033;-84
2023/10/31 08:49:36;;;;;;;9.50;4.30;;;;;;;17.53;60.86;96326.08;109679;1288;22120;-84
2023/10/31 08:52:04;;;;;;;7.50;5.20;;;;;;;17.47;61.11;96337.64;109688;1285;22242;-84
2023/10/31 08:54:32;;;;;;;7.20;4.00;;;;;;;17.41;61.18;96337.60;109757;1285;22258;-84
2023/10/31 08:57:00;;;;;;;11.70;4.90;;;;;;;17.37;61.43;96345.52;109715;1286;22969;-84
2023/10/31 08:59:28;;;;;;;9.20;4.50;;;;;;;17.33;61.54;96348.52;109720;1283;22972;-84
2023/10/31 09:01:56;;;;;;;8.90;3.90;;;;;;;17.28;61.82;96355.82;109721;1286;22182;-83
2023/10/31 09:04:24;;;;;;;8.40;4.30;;;;;;;17.22;61.92;96358.04;109652;1287;22191;-83
2023/10/31 09:06:52;;;;;;;13.50;4.40;;;;;;;17.20;62.03;96363.93;109692;1287;22204;-83
2023/10/31 09:09:20;;;;;;;10.20;4.10;;;;;;;17.19;62.09;96367.50;109718;1288;22218;-83
2023/10/31 09:11:48;;;;;;;8.40;3.80;;;;;;;17.15;62.01;96356.36;109740;1273;22124;-84
2023/10/31 09:14:16;;;;;;;10.30;4.40;;;;;;;17.12;62.29;96372.27;109690;1287;22220;-84
2023/10/31 09:16:44;;;;;;;9.30;4.10;;;;;;;17.08;62.53;96374.27;109724;1286;22295;-83
2023/10/31 09:19:12;;;;;;;7.90;4.50;;;;;;;17.05;62.68;96383.73;109723;1280;22204;-82
2023/10/31 09:21:40;;;;;;;9.60;4.80;;;;;;;17.02;62.83;96391.11;109753;1286;22220;-85
2023/10/31 09:24:09;;;;;;;12.40;5.70;;;;;;;16.99;62.95;96389.13;109715;1286;22294;-84
2023/10/31 09:26:37;;;;;;;9.30;3.80;;;;;;;16.98;63.07;96392.40;109703;1287;22175;-85
2023/10/31 09:29:05;;;;;;;10.50;4.30;;;;;;;16.96;63.00;96392.14;109707;1287;22411;-84
2023/10/31 09:31:36;;;;;;;11.50;4.90;;;;;;;16.96;63.17;96406.20;109717;1283;23106;-84
2023/10/31 09:34:04;;;;;;;8.40;4.70;;;;;;;16.94;63.25;96408.14;109741;1283;22147;-83
2023/10/31 09:36:36;;;;;;;11.40;5.00;;;;;;;16.93;63.55;96402.85;109707;1286;23018;-84
2023/10/31 09:39:04;;;;;;;11.20;4.80;;;;;;;16.91;63.66;96405.16;109727;1284;22403;-85
2023/10/31 09:41:32;;;;;;;8.50;5.00;;;;;;;16.90;63.91;96405.61;109756;1286;22226;-85
2023/10/31 09:44:00;;;;;;;7.70;4.50;;;;;;;16.93;64.03;96407.66;109701;1286;22721;-84
2023/10/31 09:46:29;;;;;;;11.20;5.40;;;;;;;16.96;64.09;96401.63;109733;1277;23084;-84
2023/10/31 09:48:57;;;;;;;9.70;5.00;;;;;;;17.00;64.11;96401.80;109541;1286;202943;-84
2023/10/31 09:51:25;;;;;;;11.90;4.50;;;;;;;17.04;64.09;96418.64;109798;1285;22753;-84
2023/10/31 09:53:55;;;;;;;9.10;4.30;;;;;;;17.12;63.83;96421.50;109696;1287;22862;-83
2023/10/31 09:56:24;;;;;;;8.00;4.70;;;;;;;17.25;63.67;96411.09;109700;1286;22298;-83
2023/10/31 09:58:52;;;;;;;9.30;5.00;;;;;;;17.44;63.36;96405.55;109729;1286;22250;-84
2023/10/31 10:01:20;;;;;;;8.30;5.20;;;;;;;17.57;63.03;96404.45;109740;1283;22785;-84
2023/10/31 10:03:49;;;;;;;10.40;5.60;;;;;;;17.68;62.93;96415.40;109727;1285;22289;-84
2023/10/31 10:06:21;;;;;;;7.50;4.80;;;;;;;17.71;63.22;96406.70;109773;1286;22318;-83
2023/10/31 10:08:50;;;;;;;7.00;4.70;;;;;;;17.76;63.01;96411.00;109724;1283;22897;-84
2023/10/31 10:11:18;;;;;;;8.70;4.60;;;;;;;17.69;63.24;96425.13;109705;1287;22214;-84
2023/10/31 10:13:46;;;;;;;8.00;5.20;;;;;;;17.63;63.68;96417.48;109852;1286;22107;-85
2023/10/31 10:16:29;;;;;;;9.10;5.30;;;;;;;17.58;64.03;96416.90;109773;1277;22226;-84
2023/10/31 10:18:56;;;;;;;7.80;4.60;;;;;;;17.51;64.40;96440.59;109775;1286;22281;-84
2023/10/31 10:21:24;;;;;;;7.70;4.30;;;;;;;17.40;64.52;96440.06;109747;1281;22756;-84
2023/10/31 10:23:52;;;;;;;7.40;4.40;;;;;;;17.31;64.81;96438.27;109718;1285;22230;-84
2023/10/31 10:26:25;;;;;;;8.30;4.00;;;;;;;17.27;65.24;96436.15;109758;1286;22191;-83
2023/10/31 10:28:57;;;;;;;6.10;4.00;;;;;;;17.31;65.11;96427.77;109738;1281;22323;-84
2023/10/31 10:31:25;;;;;;;6.10;3.80;;;;;;;17.24;65.40;96417.70;109746;1286;22221;-85
2023/10/31 10:33:53;;;;;;;8.40;4.10;;;;;;;17.34;65.46;96424.69;109742;1279;22304;-84
2023/10/31 10:36:23;;;;;;;6.90;3.50;;;;;;;17.44;65.50;96416.19;109744;1286;22108;-84
2023/10/31 10:38:56;;;;;;;7.40;3.70;;;;;;;17.53;65.40;96424.49;109740;1286;22341;-84
2023/10/31 10:41:28;;;;;;;5.90;3.30;;;;;;;17.50;65.71;96407.91;109739;1286;23072;-84
2023/10/31 10:44:02;;;;;;;5.10;2.60;;;;;;;17.63;65.71;96411.79;109646;1286;22960;-85
2023/10/31 10:46:33;;;;;;;4.90;2.70;;;;;;;17.71;65.46;96430.20;109733;1283;22218;-84
2023/10/31 10:49:06;;;;;;;6.50;4.40;;;;;;;17.58;65.45;96438.45;109750;1282;22982;-84
2023/10/31 10:51:49;;;;;;;8.80;5.10;;;;;;;17.56;65.59;96434.78;109742;1286;22661;-84
2023/10/31 10:54:31;;;;;;;7.00;3.70;;;;;;;17.38;65.40;96432.02;109685;1286;22194;-84
2023/10/31 10:57:08;;;;;;;4.80;2.90;;;;;;;17.17;65.85;96452.73;109709;1279;22923;-83
2023/10/31 10:59:42;;;;;;;6.40;3.70;;;;;;;16.97;66.11;96463.44;109745;1286;22405;-83
2023/10/31 11:02:12;;;;;;;7.00;5.10;;;;;;;16.82;66.57;96469.59;109742;1286;22306;-83
2023/10/31 11:04:42;;;;;;;6.60;3.70;;;;;;;16.72;67.05;96465.50;109730;1286;22366;-83
2023/10/31 11:07:10;;;;;;;6.40;4.10;;;;;;;16.67;67.32;96459.48;109681;1286;22193;-83
2023/10/31 11:09:39;;;;;;;4.20;3.10;;;;;;;16.63;67.57;96460.76;109766;1279;22432;-83
2023/10/31 11:12:08;;;;;;;6.70;3.80;;;;;;;16.53;67.85;96478.67;109821;1279;22221;-83
2023/10/31 11:14:37;;;;;;;7.10;4.00;;;;;;;16.43;68.35;96487.65;109703;1286;22290;-83
2023/10/31 11:17:39;;;;;;;5.10;3.00;;;;;;;16.36;69.06;96468.33;109781;1286;22262;-84
2023/10/31 11:20:10;;;;;;;9.20;4.70;;;;;;;16.28;69.51;96457.35;109639;1287;23023;-84
2023/10/31 11:22:46;;;;;;;9.10;4.10;;;;;;;16.25;69.95;96459.40;109714;1286;22369;-83
2023/10/31 11:25:23;;;;;;;8.80;4.20;;;;;;;16.25;70.27;96455.52;109741;1283;22935;-84
2023/10/31 11:28:17;;;;;;;9.60;5.50;;;;;;;16.26;70.78;96473.54;109697;1279;22258;-84
2023/10/31 11:30:48;;;;;;;6.70;3.80;;;;;;;16.30;70.98;96469.48;109715;1276;22532;-86
2023/10/31 11:33:20;;;;;;;5.80;3.20;;;;;;;16.30;71.20;96460.09;109736;1283;22210;-84
2023/10/31 11:35:59;;;;;;;7.70;4.30;;;;;;;16.26;71.56;96464.85;109745;1280;22417;-84
2023/10/31 11:38:33;;;;;;;5.20;3.40;;;;;;;16.20;71.59;96450.03;109733;1286;23020;-84
2023/10/31 11:41:02;;;;;;;8.80;3.40;;;;;;;16.17;72.25;96450.23;109752;1286;22135;-84
2023/10/31 11:43:39;;;;;;;6.40;4.10;;;;;;;16.05;72.44;96448.84;109751;1286;22219;-84
2023/10/31 11:46:23;;;;;;;5.80;3.60;;;;;;;15.97;73.30;96457.67;109725;1273;22282;-84
2023/10/31 11:48:52;;;;;;;8.20;2.80;;;;;;;15.91;74.20;96470.86;109709;1276;22220;-84
2023/10/31 11:51:20;;;;;;;4.40;2.70;;;;;;;15.85;74.44;96471.18;109700;1286;22253;-84
2023/10/31 11:53:49;;;;;;;5.10;2.20;;;;;;;15.80;74.87;96472.19;109755;1280;22862;-86